sensor_id;sensor_type;location;lat;lon;timestamp;P1;durP1;ratioP1;P2;durP2;ratioP2
49320;SDS011;35817;44.498;0.166;2022-10-22T00:00:27;2.35;;;1.00;;
49320;SDS011;35817;44.498;0.166;2022-10-22T00:02:53;3.13;;;1.33;;
49320;SDS011;35817;44.498;0.166;2022-10-22T00:05:18;1.92;;;1.00;;
49320;SDS011;35817;44.498;0.166;2022-10-22T00:07:44;4.38;;;1.48;;
49320;SDS011;35817;44.498;0.166;2022-10-22T00:10:10;4.55;;;1.10;;
49320;SDS011;35817;44.498;0.166;2022-10-22T00:12:36;3.13;;;1.38;;
49320;SDS011;35817;44.498;0.166;2022-10-22T00:15:02;3.20;;;1.17;;
49320;SDS011;35817;44.498;0.166;2022-10-22T00:17:29;4.03;;;2.15;;
49320;SDS011;35817;44.498;0.166;2022-10-22T00:19:55;3.33;;;1.20;;
49320;SDS011;35817;44.498;0.166;2022-10-22T00:22:20;4.20;;;2.00;;
49320;SDS011;35817;44.498;0.166;2022-10-22T00:24:46;3.55;;;1.20;;
49320;SDS011;35817;44.498;0.166;2022-10-22T00:27:12;4.95;;;1.45;;
49320;SDS011;35817;44.498;0.166;2022-10-22T00:29:38;3.45;;;1.60;;
49320;SDS011;35817;44.498;0.166;2022-10-22T00:32:04;4.32;;;1.58;;
49320;SDS011;35817;44.498;0.166;2022-10-22T00:34:30;3.17;;;1.13;;
49320;SDS011;35817;44.498;0.166;2022-10-22T00:36:56;2.72;;;1.45;;
49320;SDS011;35817;44.498;0.166;2022-10-22T00:39:22;6.68;;;1.77;;
49320;SDS011;35817;44.498;0.166;2022-10-22T00:41:50;4.53;;;1.70;;
49320;SDS011;35817;44.498;0.166;2022-10-22T00:47:21;4.40;;;0.90;;
49320;SDS011;35817;44.498;0.166;2022-10-22T00:49:47;2.22;;;1.08;;
49320;SDS011;35817;44.498;0.166;2022-10-22T00:52:15;5.55;;;1.15;;
49320;SDS011;35817;44.498;0.166;2022-10-22T00:54:41;2.38;;;0.80;;
49320;SDS011;35817;44.498;0.166;2022-10-22T00:57:07;7.18;;;1.27;;
49320;SDS011;35817;44.498;0.166;2022-10-22T00:59:33;2.00;;;0.77;;
49320;SDS011;35817;44.498;0.166;2022-10-22T01:02:00;4.05;;;0.98;;
49320;SDS011;35817;44.498;0.166;2022-10-22T01:04:26;2.50;;;0.80;;
49320;SDS011;35817;44.498;0.166;2022-10-22T01:06:51;2.13;;;0.70;;
49320;SDS011;35817;44.498;0.166;2022-10-22T01:09:23;5.32;;;1.65;;
49320;SDS011;35817;44.498;0.166;2022-10-22T01:11:58;3.50;;;1.17;;
49320;SDS011;35817;44.498;0.166;2022-10-22T01:25:55;3.53;;;0.98;;
49320;SDS011;35817;44.498;0.166;2022-10-22T01:31:29;2.55;;;1.02;;
49320;SDS011;35817;44.498;0.166;2022-10-22T01:34:00;2.40;;;0.70;;
49320;SDS011;35817;44.498;0.166;2022-10-22T01:36:28;1.42;;;0.57;;
49320;SDS011;35817;44.498;0.166;2022-10-22T01:38:57;2.05;;;0.60;;
49320;SDS011;35817;44.498;0.166;2022-10-22T01:41:26;2.03;;;0.85;;
49320;SDS011;35817;44.498;0.166;2022-10-22T01:43:53;3.15;;;0.75;;
49320;SDS011;35817;44.498;0.166;2022-10-22T01:46:20;4.30;;;0.95;;
49320;SDS011;35817;44.498;0.166;2022-10-22T01:56:55;2.35;;;1.10;;
49320;SDS011;35817;44.498;0.166;2022-10-22T02:01:58;2.63;;;0.98;;
49320;SDS011;35817;44.498;0.166;2022-10-22T02:04:40;2.72;;;1.17;;
49320;SDS011;35817;44.498;0.166;2022-10-22T02:07:08;4.65;;;0.50;;
49320;SDS011;35817;44.498;0.166;2022-10-22T02:12:04;5.25;;;1.15;;
49320;SDS011;35817;44.498;0.166;2022-10-22T02:14:32;4.80;;;1.00;;
49320;SDS011;35817;44.498;0.166;2022-10-22T02:17:01;4.13;;;0.77;;
49320;SDS011;35817;44.498;0.166;2022-10-22T02:22:04;3.78;;;0.95;;
49320;SDS011;35817;44.498;0.166;2022-10-22T02:24:31;1.95;;;0.90;;
49320;SDS011;35817;44.498;0.166;2022-10-22T02:27:03;3.85;;;0.80;;
49320;SDS011;35817;44.498;0.166;2022-10-22T02:29:54;4.07;;;1.45;;
49320;SDS011;35817;44.498;0.166;2022-10-22T02:32:33;3.35;;;0.75;;
49320;SDS011;35817;44.498;0.166;2022-10-22T02:35:09;1.73;;;0.82;;
49320;SDS011;35817;44.498;0.166;2022-10-22T02:37:39;5.65;;;1.08;;
49320;SDS011;35817;44.498;0.166;2022-10-22T02:40:05;6.18;;;1.30;;
49320;SDS011;35817;44.498;0.166;2022-10-22T02:42:31;3.15;;;1.30;;
49320;SDS011;35817;44.498;0.166;2022-10-22T02:44:58;2.35;;;0.90;;
49320;SDS011;35817;44.498;0.166;2022-10-22T02:47:24;2.97;;;1.00;;
49320;SDS011;35817;44.498;0.166;2022-10-22T02:49:50;4.07;;;1.00;;
49320;SDS011;35817;44.498;0.166;2022-10-22T02:52:16;3.65;;;0.80;;
49320;SDS011;35817;44.498;0.166;2022-10-22T02:54:41;4.18;;;1.20;;
49320;SDS011;35817;44.498;0.166;2022-10-22T02:57:07;1.70;;;0.80;;
49320;SDS011;35817;44.498;0.166;2022-10-22T02:59:33;6.07;;;1.13;;
49320;SDS011;35817;44.498;0.166;2022-10-22T03:01:58;4.22;;;0.60;;
49320;SDS011;35817;44.498;0.166;2022-10-22T03:04:24;4.85;;;1.48;;
49320;SDS011;35817;44.498;0.166;2022-10-22T03:06:50;4.53;;;1.27;;
49320;SDS011;35817;44.498;0.166;2022-10-22T03:09:15;2.63;;;1.40;;
49320;SDS011;35817;44.498;0.166;2022-10-22T03:11:41;2.78;;;1.20;;
49320;SDS011;35817;44.498;0.166;2022-10-22T03:14:07;7.45;;;1.45;;
49320;SDS011;35817;44.498;0.166;2022-10-22T03:16:33;2.33;;;0.80;;
49320;SDS011;35817;44.498;0.166;2022-10-22T03:18:58;2.78;;;0.90;;
49320;SDS011;35817;44.498;0.166;2022-10-22T03:24:14;3.03;;;0.95;;
49320;SDS011;35817;44.498;0.166;2022-10-22T03:26:47;4.10;;;1.10;;
49320;SDS011;35817;44.498;0.166;2022-10-22T03:29:16;2.22;;;1.00;;
49320;SDS011;35817;44.498;0.166;2022-10-22T03:31:42;2.58;;;1.00;;
49320;SDS011;35817;44.498;0.166;2022-10-22T03:34:08;1.52;;;0.80;;
49320;SDS011;35817;44.498;0.166;2022-10-22T03:36:35;4.30;;;0.70;;
49320;SDS011;35817;44.498;0.166;2022-10-22T03:39:02;3.78;;;0.77;;
49320;SDS011;35817;44.498;0.166;2022-10-22T03:41:29;3.78;;;1.80;;
49320;SDS011;35817;44.498;0.166;2022-10-22T03:43:55;3.25;;;1.10;;
49320;SDS011;35817;44.498;0.166;2022-10-22T03:46:21;2.10;;;0.98;;
49320;SDS011;35817;44.498;0.166;2022-10-22T03:48:47;3.67;;;1.58;;
49320;SDS011;35817;44.498;0.166;2022-10-22T03:51:13;3.28;;;1.13;;
49320;SDS011;35817;44.498;0.166;2022-10-22T03:53:39;3.20;;;1.40;;
49320;SDS011;35817;44.498;0.166;2022-10-22T03:56:06;4.80;;;1.00;;
49320;SDS011;35817;44.498;0.166;2022-10-22T03:58:34;3.40;;;1.05;;
49320;SDS011;35817;44.498;0.166;2022-10-22T04:01:04;6.82;;;2.63;;
49320;SDS011;35817;44.498;0.166;2022-10-22T04:03:31;6.28;;;2.95;;
49320;SDS011;35817;44.498;0.166;2022-10-22T04:06:03;5.45;;;2.85;;
49320;SDS011;35817;44.498;0.166;2022-10-22T04:08:32;6.57;;;3.00;;
49320;SDS011;35817;44.498;0.166;2022-10-22T04:10:58;5.68;;;3.13;;
49320;SDS011;35817;44.498;0.166;2022-10-22T04:13:23;8.70;;;6.20;;
49320;SDS011;35817;44.498;0.166;2022-10-22T04:15:49;11.68;;;7.60;;
49320;SDS011;35817;44.498;0.166;2022-10-22T04:18:16;11.25;;;6.15;;
49320;SDS011;35817;44.498;0.166;2022-10-22T04:20:43;13.63;;;5.20;;
49320;SDS011;35817;44.498;0.166;2022-10-22T04:23:08;8.18;;;4.18;;
49320;SDS011;35817;44.498;0.166;2022-10-22T04:25:34;5.90;;;2.92;;
49320;SDS011;35817;44.498;0.166;2022-10-22T04:28:00;5.38;;;3.03;;
49320;SDS011;35817;44.498;0.166;2022-10-22T04:30:25;4.93;;;1.83;;
49320;SDS011;35817;44.498;0.166;2022-10-22T04:32:51;3.42;;;1.30;;
49320;SDS011;35817;44.498;0.166;2022-10-22T04:35:17;5.47;;;3.22;;
49320;SDS011;35817;44.498;0.166;2022-10-22T04:37:43;5.78;;;2.30;;
49320;SDS011;35817;44.498;0.166;2022-10-22T04:40:08;7.72;;;2.88;;
49320;SDS011;35817;44.498;0.166;2022-10-22T04:42:35;4.45;;;2.30;;
49320;SDS011;35817;44.498;0.166;2022-10-22T04:45:00;4.15;;;2.65;;
49320;SDS011;35817;44.498;0.166;2022-10-22T04:47:26;3.65;;;2.10;;
49320;SDS011;35817;44.498;0.166;2022-10-22T04:49:52;4.82;;;2.33;;
49320;SDS011;35817;44.498;0.166;2022-10-22T04:52:17;8.13;;;2.08;;
49320;SDS011;35817;44.498;0.166;2022-10-22T04:54:43;3.65;;;2.45;;
49320;SDS011;35817;44.498;0.166;2022-10-22T04:57:09;4.75;;;2.47;;
49320;SDS011;35817;44.498;0.166;2022-10-22T04:59:34;2.38;;;1.58;;
49320;SDS011;35817;44.498;0.166;2022-10-22T05:02:00;3.63;;;1.75;;
49320;SDS011;35817;44.498;0.166;2022-10-22T05:04:26;5.65;;;1.92;;
49320;SDS011;35817;44.498;0.166;2022-10-22T05:06:52;4.85;;;2.45;;
49320;SDS011;35817;44.498;0.166;2022-10-22T05:09:18;4.05;;;1.65;;
49320;SDS011;35817;44.498;0.166;2022-10-22T05:11:45;4.28;;;1.73;;
49320;SDS011;35817;44.498;0.166;2022-10-22T05:14:13;4.18;;;1.50;;
49320;SDS011;35817;44.498;0.166;2022-10-22T05:16:41;8.55;;;1.67;;
49320;SDS011;35817;44.498;0.166;2022-10-22T05:19:07;6.07;;;1.55;;
49320;SDS011;35817;44.498;0.166;2022-10-22T05:21:38;7.72;;;3.58;;
49320;SDS011;35817;44.498;0.166;2022-10-22T05:24:04;4.80;;;1.40;;
49320;SDS011;35817;44.498;0.166;2022-10-22T05:26:30;4.40;;;1.40;;
49320;SDS011;35817;44.498;0.166;2022-10-22T05:28:55;2.95;;;1.90;;
49320;SDS011;35817;44.498;0.166;2022-10-22T05:31:21;7.40;;;1.30;;
49320;SDS011;35817;44.498;0.166;2022-10-22T05:33:47;4.30;;;2.20;;
49320;SDS011;35817;44.498;0.166;2022-10-22T05:36:14;7.75;;;2.03;;
49320;SDS011;35817;44.498;0.166;2022-10-22T05:38:41;3.67;;;1.15;;
49320;SDS011;35817;44.498;0.166;2022-10-22T05:41:09;2.65;;;1.58;;
49320;SDS011;35817;44.498;0.166;2022-10-22T05:43:37;3.08;;;1.40;;
49320;SDS011;35817;44.498;0.166;2022-10-22T05:46:08;7.03;;;1.92;;
49320;SDS011;35817;44.498;0.166;2022-10-22T05:48:35;3.38;;;1.30;;
49320;SDS011;35817;44.498;0.166;2022-10-22T05:51:02;4.80;;;1.70;;
49320;SDS011;35817;44.498;0.166;2022-10-22T05:53:31;4.80;;;1.70;;
49320;SDS011;35817;44.498;0.166;2022-10-22T05:56:01;2.42;;;1.58;;
49320;SDS011;35817;44.498;0.166;2022-10-22T05:58:28;7.35;;;1.02;;
49320;SDS011;35817;44.498;0.166;2022-10-22T06:00:59;3.75;;;2.10;;
49320;SDS011;35817;44.498;0.166;2022-10-22T06:03:29;5.70;;;2.17;;
49320;SDS011;35817;44.498;0.166;2022-10-22T06:05:56;3.28;;;1.23;;
49320;SDS011;35817;44.498;0.166;2022-10-22T06:10:51;6.38;;;2.20;;
49320;SDS011;35817;44.498;0.166;2022-10-22T06:13:17;5.60;;;1.85;;
49320;SDS011;35817;44.498;0.166;2022-10-22T06:15:43;5.03;;;2.00;;
49320;SDS011;35817;44.498;0.166;2022-10-22T06:18:09;5.35;;;4.30;;
49320;SDS011;35817;44.498;0.166;2022-10-22T06:20:35;7.00;;;3.30;;
49320;SDS011;35817;44.498;0.166;2022-10-22T06:23:01;6.30;;;1.85;;
49320;SDS011;35817;44.498;0.166;2022-10-22T06:25:26;4.45;;;2.42;;
49320;SDS011;35817;44.498;0.166;2022-10-22T06:27:52;7.03;;;2.55;;
49320;SDS011;35817;44.498;0.166;2022-10-22T06:30:18;3.05;;;1.92;;
49320;SDS011;35817;44.498;0.166;2022-10-22T06:32:43;2.40;;;1.65;;
49320;SDS011;35817;44.498;0.166;2022-10-22T06:35:09;6.18;;;2.15;;
49320;SDS011;35817;44.498;0.166;2022-10-22T06:37:34;5.97;;;1.98;;
49320;SDS011;35817;44.498;0.166;2022-10-22T06:40:00;6.82;;;2.28;;
49320;SDS011;35817;44.498;0.166;2022-10-22T06:42:27;4.90;;;1.50;;
49320;SDS011;35817;44.498;0.166;2022-10-22T06:44:52;5.03;;;2.28;;
49320;SDS011;35817;44.498;0.166;2022-10-22T06:47:18;8.23;;;2.78;;
49320;SDS011;35817;44.498;0.166;2022-10-22T06:49:44;5.82;;;2.92;;
49320;SDS011;35817;44.498;0.166;2022-10-22T06:52:09;11.65;;;4.70;;
49320;SDS011;35817;44.498;0.166;2022-10-22T06:54:36;6.25;;;3.10;;
49320;SDS011;35817;44.498;0.166;2022-10-22T06:57:02;6.15;;;3.40;;
49320;SDS011;35817;44.498;0.166;2022-10-22T06:59:28;4.32;;;2.70;;
49320;SDS011;35817;44.498;0.166;2022-10-22T07:01:53;6.95;;;3.95;;
49320;SDS011;35817;44.498;0.166;2022-10-22T07:04:19;7.15;;;3.78;;
49320;SDS011;35817;44.498;0.166;2022-10-22T07:06:45;7.38;;;4.05;;
49320;SDS011;35817;44.498;0.166;2022-10-22T07:09:10;12.63;;;9.18;;
49320;SDS011;35817;44.498;0.166;2022-10-22T07:11:38;8.02;;;6.28;;
49320;SDS011;35817;44.498;0.166;2022-10-22T07:14:06;6.93;;;3.53;;
49320;SDS011;35817;44.498;0.166;2022-10-22T07:16:31;7.82;;;4.82;;
49320;SDS011;35817;44.498;0.166;2022-10-22T07:18:57;6.60;;;3.13;;
49320;SDS011;35817;44.498;0.166;2022-10-22T07:21:24;9.50;;;3.75;;
49320;SDS011;35817;44.498;0.166;2022-10-22T07:23:50;8.05;;;3.78;;
49320;SDS011;35817;44.498;0.166;2022-10-22T07:26:16;6.50;;;2.95;;
49320;SDS011;35817;44.498;0.166;2022-10-22T07:28:44;9.60;;;5.18;;
49320;SDS011;35817;44.498;0.166;2022-10-22T07:31:12;7.80;;;4.57;;
49320;SDS011;35817;44.498;0.166;2022-10-22T07:33:39;5.30;;;4.40;;
49320;SDS011;35817;44.498;0.166;2022-10-22T07:36:06;11.35;;;5.53;;
49320;SDS011;35817;44.498;0.166;2022-10-22T07:38:34;12.10;;;4.30;;
49320;SDS011;35817;44.498;0.166;2022-10-22T07:41:00;8.70;;;3.78;;
49320;SDS011;35817;44.498;0.166;2022-10-22T07:43:27;4.90;;;3.45;;
49320;SDS011;35817;44.498;0.166;2022-10-22T07:45:52;5.05;;;3.83;;
49320;SDS011;35817;44.498;0.166;2022-10-22T07:48:19;4.90;;;2.80;;
49320;SDS011;35817;44.498;0.166;2022-10-22T07:50:47;6.03;;;3.17;;
49320;SDS011;35817;44.498;0.166;2022-10-22T07:53:14;4.95;;;3.72;;
49320;SDS011;35817;44.498;0.166;2022-10-22T07:55:40;5.50;;;3.65;;
49320;SDS011;35817;44.498;0.166;2022-10-22T07:58:06;7.68;;;3.05;;
49320;SDS011;35817;44.498;0.166;2022-10-22T08:00:31;8.50;;;3.53;;
49320;SDS011;35817;44.498;0.166;2022-10-22T08:02:57;9.05;;;3.33;;
49320;SDS011;35817;44.498;0.166;2022-10-22T08:05:23;3.67;;;2.47;;
49320;SDS011;35817;44.498;0.166;2022-10-22T08:07:48;17.38;;;4.03;;
49320;SDS011;35817;44.498;0.166;2022-10-22T08:10:14;4.43;;;3.25;;
49320;SDS011;35817;44.498;0.166;2022-10-22T08:12:40;6.55;;;3.63;;
49320;SDS011;35817;44.498;0.166;2022-10-22T08:15:06;6.93;;;4.72;;
49320;SDS011;35817;44.498;0.166;2022-10-22T08:17:32;8.25;;;4.63;;
49320;SDS011;35817;44.498;0.166;2022-10-22T08:19:58;9.60;;;5.05;;
49320;SDS011;35817;44.498;0.166;2022-10-22T08:22:24;7.18;;;3.30;;
49320;SDS011;35817;44.498;0.166;2022-10-22T08:24:49;8.68;;;3.25;;
49320;SDS011;35817;44.498;0.166;2022-10-22T08:27:15;3.90;;;1.95;;
49320;SDS011;35817;44.498;0.166;2022-10-22T08:29:41;3.63;;;1.80;;
49320;SDS011;35817;44.498;0.166;2022-10-22T08:32:07;6.38;;;2.00;;
49320;SDS011;35817;44.498;0.166;2022-10-22T08:34:32;5.28;;;2.13;;
49320;SDS011;35817;44.498;0.166;2022-10-22T08:36:58;6.47;;;1.52;;
49320;SDS011;35817;44.498;0.166;2022-10-22T08:39:24;4.28;;;1.17;;
49320;SDS011;35817;44.498;0.166;2022-10-22T08:42:33;4.60;;;1.77;;
49320;SDS011;35817;44.498;0.166;2022-10-22T08:50:40;4.82;;;1.38;;
49320;SDS011;35817;44.498;0.166;2022-10-22T08:53:21;5.35;;;2.17;;
49320;SDS011;35817;44.498;0.166;2022-10-22T08:56:02;3.13;;;1.50;;
49320;SDS011;35817;44.498;0.166;2022-10-22T09:01:04;7.97;;;1.45;;
49320;SDS011;35817;44.498;0.166;2022-10-22T09:03:40;6.10;;;1.08;;
49320;SDS011;35817;44.498;0.166;2022-10-22T09:08:47;6.53;;;1.42;;
49320;SDS011;35817;44.498;0.166;2022-10-22T09:11:16;5.22;;;1.73;;
49320;SDS011;35817;44.498;0.166;2022-10-22T09:13:53;2.25;;;1.13;;
49320;SDS011;35817;44.498;0.166;2022-10-22T09:19:14;3.95;;;1.17;;
49320;SDS011;35817;44.498;0.166;2022-10-22T09:24:48;5.13;;;1.77;;
49320;SDS011;35817;44.498;0.166;2022-10-22T09:27:25;1.92;;;0.60;;
49320;SDS011;35817;44.498;0.166;2022-10-22T09:29:52;4.90;;;1.25;;
49320;SDS011;35817;44.498;0.166;2022-10-22T09:32:18;2.40;;;1.23;;
49320;SDS011;35817;44.498;0.166;2022-10-22T09:34:45;5.05;;;1.13;;
49320;SDS011;35817;44.498;0.166;2022-10-22T09:37:13;4.38;;;1.08;;
49320;SDS011;35817;44.498;0.166;2022-10-22T09:39:46;3.42;;;0.75;;
49320;SDS011;35817;44.498;0.166;2022-10-22T09:42:15;4.05;;;0.90;;
49320;SDS011;35817;44.498;0.166;2022-10-22T09:44:43;2.97;;;1.08;;
49320;SDS011;35817;44.498;0.166;2022-10-22T09:50:11;2.25;;;0.88;;
49320;SDS011;35817;44.498;0.166;2022-10-22T09:52:53;3.10;;;0.90;;
49320;SDS011;35817;44.498;0.166;2022-10-22T09:55:23;3.20;;;0.77;;
49320;SDS011;35817;44.498;0.166;2022-10-22T09:57:54;2.38;;;0.93;;
49320;SDS011;35817;44.498;0.166;2022-10-22T10:00:23;3.08;;;1.10;;
49320;SDS011;35817;44.498;0.166;2022-10-22T10:02:52;2.00;;;0.65;;
49320;SDS011;35817;44.498;0.166;2022-10-22T10:05:24;4.93;;;1.02;;
49320;SDS011;35817;44.498;0.166;2022-10-22T10:07:57;3.83;;;0.75;;
49320;SDS011;35817;44.498;0.166;2022-10-22T10:10:34;4.15;;;0.82;;
49320;SDS011;35817;44.498;0.166;2022-10-22T10:18:50;3.20;;;0.75;;
49320;SDS011;35817;44.498;0.166;2022-10-22T10:26:52;3.70;;;1.20;;
49320;SDS011;35817;44.498;0.166;2022-10-22T10:39:57;4.63;;;1.77;;
49320;SDS011;35817;44.498;0.166;2022-10-22T10:43:01;5.38;;;1.50;;
49320;SDS011;35817;44.498;0.166;2022-10-22T10:45:44;3.83;;;0.77;;
49320;SDS011;35817;44.498;0.166;2022-10-22T10:59:28;2.00;;;0.70;;
49320;SDS011;35817;44.498;0.166;2022-10-22T11:10:39;3.50;;;0.85;;
49320;SDS011;35817;44.498;0.166;2022-10-22T11:13:14;4.45;;;1.17;;
49320;SDS011;35817;44.498;0.166;2022-10-22T11:15:55;6.03;;;3.85;;
49320;SDS011;35817;44.498;0.166;2022-10-22T11:26:35;2.72;;;0.50;;
49320;SDS011;35817;44.498;0.166;2022-10-22T11:29:10;3.80;;;1.30;;
49320;SDS011;35817;44.498;0.166;2022-10-22T11:31:41;5.90;;;1.35;;
49320;SDS011;35817;44.498;0.166;2022-10-22T11:34:21;4.60;;;1.45;;
49320;SDS011;35817;44.498;0.166;2022-10-22T11:36:52;3.50;;;0.82;;
49320;SDS011;35817;44.498;0.166;2022-10-22T11:39:29;3.08;;;0.82;;
49320;SDS011;35817;44.498;0.166;2022-10-22T11:42:32;2.67;;;0.63;;
49320;SDS011;35817;44.498;0.166;2022-10-22T11:55:44;2.92;;;0.50;;
49320;SDS011;35817;44.498;0.166;2022-10-22T12:00:53;1.45;;;0.30;;
49320;SDS011;35817;44.498;0.166;2022-10-22T12:03:36;2.58;;;0.50;;
49320;SDS011;35817;44.498;0.166;2022-10-22T12:11:27;1.23;;;0.50;;
49320;SDS011;35817;44.498;0.166;2022-10-22T12:14:18;2.67;;;0.20;;
49320;SDS011;35817;44.498;0.166;2022-10-22T12:17:07;1.50;;;0.28;;
49320;SDS011;35817;44.498;0.166;2022-10-22T12:25:21;3.20;;;0.35;;
49320;SDS011;35817;44.498;0.166;2022-10-22T12:27:54;3.42;;;0.40;;
49320;SDS011;35817;44.498;0.166;2022-10-22T12:30:28;1.27;;;0.25;;
49320;SDS011;35817;44.498;0.166;2022-10-22T12:32:57;4.30;;;0.28;;
49320;SDS011;35817;44.498;0.166;2022-10-22T12:35:27;1.63;;;0.30;;
49320;SDS011;35817;44.498;0.166;2022-10-22T12:38:04;2.45;;;0.30;;
49320;SDS011;35817;44.498;0.166;2022-10-22T12:40:46;1.75;;;0.32;;
49320;SDS011;35817;44.498;0.166;2022-10-22T12:50:41;1.65;;;0.20;;
49320;SDS011;35817;44.498;0.166;2022-10-22T12:53:30;0.98;;;0.28;;
49320;SDS011;35817;44.498;0.166;2022-10-22T13:00:58;2.30;;;0.20;;
49320;SDS011;35817;44.498;0.166;2022-10-22T13:03:36;0.93;;;0.10;;
49320;SDS011;35817;44.498;0.166;2022-10-22T13:21:25;3.10;;;0.30;;
49320;SDS011;35817;44.498;0.166;2022-10-22T13:23:57;1.23;;;0.40;;
49320;SDS011;35817;44.498;0.166;2022-10-22T13:26:30;3.28;;;0.20;;
49320;SDS011;35817;44.498;0.166;2022-10-22T13:51:10;4.22;;;0.20;;
49320;SDS011;35817;44.498;0.166;2022-10-22T13:53:39;0.80;;;0.25;;
49320;SDS011;35817;44.498;0.166;2022-10-22T13:56:05;1.85;;;0.30;;
49320;SDS011;35817;44.498;0.166;2022-10-22T14:05:52;2.13;;;0.13;;
49320;SDS011;35817;44.498;0.166;2022-10-22T14:10:44;1.92;;;0.15;;
49320;SDS011;35817;44.498;0.166;2022-10-22T14:30:18;0.60;;;0.10;;
49320;SDS011;35817;44.498;0.166;2022-10-22T14:32:46;1.65;;;0.10;;
49320;SDS011;35817;44.498;0.166;2022-10-22T14:45:05;1.30;;;0.20;;
49320;SDS011;35817;44.498;0.166;2022-10-22T14:47:36;1.60;;;0.10;;
49320;SDS011;35817;44.498;0.166;2022-10-22T14:50:02;2.13;;;0.15;;
49320;SDS011;35817;44.498;0.166;2022-10-22T14:52:28;1.73;;;0.10;;
49320;SDS011;35817;44.498;0.166;2022-10-22T14:54:54;1.67;;;0.17;;
49320;SDS011;35817;44.498;0.166;2022-10-22T14:57:19;1.10;;;0.20;;
49320;SDS011;35817;44.498;0.166;2022-10-22T14:59:45;0.85;;;0.20;;
49320;SDS011;35817;44.498;0.166;2022-10-22T15:02:11;1.00;;;0.20;;
49320;SDS011;35817;44.498;0.166;2022-10-22T15:04:37;2.60;;;0.22;;
49320;SDS011;35817;44.498;0.166;2022-10-22T15:07:03;0.70;;;0.17;;
49320;SDS011;35817;44.498;0.166;2022-10-22T15:09:29;1.50;;;0.20;;
49320;SDS011;35817;44.498;0.166;2022-10-22T15:14:21;1.23;;;0.20;;
49320;SDS011;35817;44.498;0.166;2022-10-22T15:16:47;2.13;;;0.20;;
49320;SDS011;35817;44.498;0.166;2022-10-22T15:19:12;1.80;;;0.60;;
49320;SDS011;35817;44.498;0.166;2022-10-22T15:21:38;1.95;;;0.20;;
49320;SDS011;35817;44.498;0.166;2022-10-22T15:24:04;1.23;;;0.20;;
49320;SDS011;35817;44.498;0.166;2022-10-22T15:26:30;2.83;;;0.13;;
49320;SDS011;35817;44.498;0.166;2022-10-22T15:28:56;0.50;;;0.10;;
49320;SDS011;35817;44.498;0.166;2022-10-22T15:34:06;0.52;;;0.22;;
49320;SDS011;35817;44.498;0.166;2022-10-22T15:36:32;1.15;;;0.30;;
49320;SDS011;35817;44.498;0.166;2022-10-22T15:38:57;1.67;;;0.20;;
49320;SDS011;35817;44.498;0.166;2022-10-22T15:41:23;1.15;;;0.20;;
49320;SDS011;35817;44.498;0.166;2022-10-22T15:43:49;2.83;;;0.20;;
49320;SDS011;35817;44.498;0.166;2022-10-22T15:46:16;2.53;;;0.32;;
49320;SDS011;35817;44.498;0.166;2022-10-22T15:48:43;1.00;;;0.20;;
49320;SDS011;35817;44.498;0.166;2022-10-22T15:51:10;1.50;;;0.40;;
49320;SDS011;35817;44.498;0.166;2022-10-22T15:53:37;3.58;;;0.32;;
49320;SDS011;35817;44.498;0.166;2022-10-22T15:56:03;2.42;;;0.32;;
49320;SDS011;35817;44.498;0.166;2022-10-22T15:58:29;2.00;;;0.35;;
49320;SDS011;35817;44.498;0.166;2022-10-22T16:01:02;2.03;;;0.50;;
49320;SDS011;35817;44.498;0.166;2022-10-22T16:03:29;2.85;;;0.20;;
49320;SDS011;35817;44.498;0.166;2022-10-22T16:05:54;1.80;;;0.68;;
49320;SDS011;35817;44.498;0.166;2022-10-22T16:08:21;1.88;;;0.10;;
49320;SDS011;35817;44.498;0.166;2022-10-22T16:10:47;1.20;;;0.13;;
49320;SDS011;35817;44.498;0.166;2022-10-22T16:13:13;3.38;;;0.40;;
49320;SDS011;35817;44.498;0.166;2022-10-22T16:15:39;2.25;;;0.20;;
49320;SDS011;35817;44.498;0.166;2022-10-22T16:18:05;1.70;;;0.30;;
49320;SDS011;35817;44.498;0.166;2022-10-22T16:20:31;3.53;;;0.50;;
49320;SDS011;35817;44.498;0.166;2022-10-22T16:22:56;3.67;;;0.40;;
49320;SDS011;35817;44.498;0.166;2022-10-22T16:25:22;4.45;;;0.28;;
49320;SDS011;35817;44.498;0.166;2022-10-22T16:27:49;1.05;;;0.25;;
49320;SDS011;35817;44.498;0.166;2022-10-22T16:30:16;0.47;;;0.20;;
49320;SDS011;35817;44.498;0.166;2022-10-22T16:32:42;5.10;;;0.22;;
49320;SDS011;35817;44.498;0.166;2022-10-22T16:35:07;2.80;;;0.28;;
49320;SDS011;35817;44.498;0.166;2022-10-22T16:37:33;1.13;;;0.20;;
49320;SDS011;35817;44.498;0.166;2022-10-22T16:39:59;1.38;;;0.30;;
49320;SDS011;35817;44.498;0.166;2022-10-22T16:42:25;2.42;;;0.20;;
49320;SDS011;35817;44.498;0.166;2022-10-22T16:44:50;1.20;;;0.20;;
49320;SDS011;35817;44.498;0.166;2022-10-22T16:47:16;1.77;;;0.30;;
49320;SDS011;35817;44.498;0.166;2022-10-22T16:49:42;1.42;;;0.43;;
49320;SDS011;35817;44.498;0.166;2022-10-22T16:52:07;2.17;;;0.40;;
49320;SDS011;35817;44.498;0.166;2022-10-22T16:54:33;1.52;;;0.40;;
49320;SDS011;35817;44.498;0.166;2022-10-22T16:56:59;2.15;;;0.50;;
49320;SDS011;35817;44.498;0.166;2022-10-22T16:59:24;2.05;;;0.38;;
49320;SDS011;35817;44.498;0.166;2022-10-22T17:01:50;3.65;;;0.75;;
49320;SDS011;35817;44.498;0.166;2022-10-22T17:04:16;5.90;;;2.05;;
49320;SDS011;35817;44.498;0.166;2022-10-22T17:06:42;3.78;;;2.00;;
49320;SDS011;35817;44.498;0.166;2022-10-22T17:09:07;4.60;;;1.73;;
49320;SDS011;35817;44.498;0.166;2022-10-22T17:11:34;3.35;;;1.88;;
49320;SDS011;35817;44.498;0.166;2022-10-22T17:14:01;7.05;;;1.40;;
49320;SDS011;35817;44.498;0.166;2022-10-22T17:16:27;2.13;;;1.52;;
49320;SDS011;35817;44.498;0.166;2022-10-22T17:18:53;3.15;;;1.40;;
49320;SDS011;35817;44.498;0.166;2022-10-22T17:21:19;2.88;;;1.35;;
49320;SDS011;35817;44.498;0.166;2022-10-22T17:23:46;3.17;;;1.08;;
49320;SDS011;35817;44.498;0.166;2022-10-22T17:26:14;2.00;;;0.95;;
49320;SDS011;35817;44.498;0.166;2022-10-22T17:31:19;3.90;;;1.05;;
49320;SDS011;35817;44.498;0.166;2022-10-22T17:33:47;2.45;;;0.90;;
49320;SDS011;35817;44.498;0.166;2022-10-22T17:36:13;1.65;;;0.88;;
49320;SDS011;35817;44.498;0.166;2022-10-22T17:38:40;4.13;;;0.85;;
49320;SDS011;35817;44.498;0.166;2022-10-22T17:41:07;3.30;;;0.60;;
49320;SDS011;35817;44.498;0.166;2022-10-22T17:43:34;2.40;;;0.60;;
49320;SDS011;35817;44.498;0.166;2022-10-22T17:46:13;2.20;;;0.82;;
49320;SDS011;35817;44.498;0.166;2022-10-22T17:48:41;2.45;;;0.50;;
49320;SDS011;35817;44.498;0.166;2022-10-22T17:51:07;2.75;;;0.65;;
49320;SDS011;35817;44.498;0.166;2022-10-22T17:53:34;2.30;;;0.40;;
49320;SDS011;35817;44.498;0.166;2022-10-22T17:56:02;2.05;;;0.80;;
49320;SDS011;35817;44.498;0.166;2022-10-22T17:58:34;3.85;;;0.80;;
49320;SDS011;35817;44.498;0.166;2022-10-22T18:01:00;2.42;;;0.80;;
49320;SDS011;35817;44.498;0.166;2022-10-22T18:03:25;2.22;;;0.50;;
49320;SDS011;35817;44.498;0.166;2022-10-22T18:05:52;2.40;;;0.63;;
49320;SDS011;35817;44.498;0.166;2022-10-22T18:08:18;3.88;;;0.80;;
49320;SDS011;35817;44.498;0.166;2022-10-22T18:10:43;3.83;;;0.95;;
49320;SDS011;35817;44.498;0.166;2022-10-22T18:13:09;4.43;;;2.00;;
49320;SDS011;35817;44.498;0.166;2022-10-22T18:15:35;2.47;;;1.20;;
49320;SDS011;35817;44.498;0.166;2022-10-22T18:18:01;3.88;;;1.65;;
49320;SDS011;35817;44.498;0.166;2022-10-22T18:20:27;6.75;;;2.13;;
49320;SDS011;35817;44.498;0.166;2022-10-22T18:22:53;4.05;;;1.75;;
49320;SDS011;35817;44.498;0.166;2022-10-22T18:25:19;4.57;;;1.38;;
49320;SDS011;35817;44.498;0.166;2022-10-22T18:27:45;3.83;;;0.75;;
49320;SDS011;35817;44.498;0.166;2022-10-22T18:30:11;4.40;;;1.20;;
49320;SDS011;35817;44.498;0.166;2022-10-22T18:32:37;3.28;;;1.05;;
49320;SDS011;35817;44.498;0.166;2022-10-22T18:35:03;2.58;;;1.02;;
49320;SDS011;35817;44.498;0.166;2022-10-22T18:37:29;8.45;;;1.02;;
49320;SDS011;35817;44.498;0.166;2022-10-22T18:39:56;2.33;;;1.02;;